Floyd, VA (24091)

4:09 PM EDT on August 24, 2016 (GMT -0400)
| | Change Station

Elev -9999 ft 0.00 °N, 0.00 °E | Updated

Mostly Cloudy
Mostly Cloudy
76 °F
Feels Like 76 °F
N
5
Wind Variable Wind from SSE
Gusts mph

Today
High -- | Low -- °F
--% Chance of Precip.
Yesterday
High -- | Low -- °F
Precip. -- in
Pressure 30.32 in
Visibility 10.0 miles
Clouds Scattered Clouds 3000 ft
Scattered Clouds 5500 ft
Overcast 6500 ft
Dew Point 67 °F
Humidity 73%
Rainfall --
Snow Depth Not available.
6:46 AM 8:00 PM
Waning Gibbous, 54% visible
METAR KBCB 241955Z AUTO 31003KT 10SM SCT030 SCT055 OVC065 26/20 A3032 RMK AO2 T02570196 TSNO
Pressure 30.32 in
Visibility 10.0 miles
Clouds Scattered Clouds 3000 ft
Scattered Clouds 5500 ft
Overcast 6500 ft
Dew Point 67 °F
Humidity 73%
Rainfall --
Snow Depth Not available.
6:46 AM 8:00 PM
Waning Gibbous, 54% visible
METAR KBCB 241955Z AUTO 31003KT 10SM SCT030 SCT055 OVC065 26/20 A3032 RMK AO2 T02570196 TSNO

10-Day Weather Forecast

Almanac

Astronomy

Aug. 24, 2016 Rise Set
Actual Time
Civil Twilight
Nautical Twilight
Astronomical Twilight
Moon
Length of Visible Light
Length of Day
Tomorrow will be .
, % of the Moon is Illuminated

Today's Extremes

State Highs State Lows

Community

WunderPhotos

Upload Photos

1,934,696 photos uploaded!

WunderBlog® & News

Nearby

Air Quality

  Air Quality AQ Index Pollutant
Not available.

Snow Depth

Station Depth Elevation

Earthquake Activity

City Distance Mag. Time & Date
Minimum magnitude displayed is 2.5.

Coastal Water Temperatures

Place Temperature

Stations

Nearby Weather Stations

Station Location Temp. Windchill Dew Point Humidity Wind Precip. Elev Updated Type
                   

Watches & Warnings

There are currently no watches in effect.